createdAt,value
2018-09-14T00:02:15.350Z,101921.92
2018-09-14T00:04:43.945Z,101922.58
2018-09-14T00:07:12.530Z,101917.79
2018-09-14T00:09:41.172Z,101923.23
2018-09-14T00:12:09.734Z,101907.73
2018-09-14T00:14:38.324Z,101909.98
2018-09-14T00:17:07.474Z,101907.91
2018-09-14T00:19:36.160Z,101909.59
2018-09-14T00:22:04.753Z,101912.63
2018-09-14T00:24:33.350Z,101918.86
2018-09-14T00:27:01.943Z,101909.11
2018-09-14T00:29:30.519Z,101910.94
2018-09-14T00:31:59.093Z,101908.85
2018-09-14T00:34:27.680Z,101921.27
2018-09-14T00:36:56.282Z,101916.80
2018-09-14T00:39:24.859Z,101912.86
2018-09-14T00:41:53.442Z,101909.23
2018-09-14T00:44:22.017Z,101906.69
2018-09-14T00:46:50.581Z,101909.09
2018-09-14T00:49:19.140Z,101910.66
2018-09-14T00:51:47.708Z,101903.48
2018-09-14T00:54:16.281Z,101904.17
2018-09-14T00:56:44.869Z,101908.20
2018-09-14T00:59:13.429Z,101908.20
2018-09-14T01:01:42.019Z,101904.13
2018-09-14T01:04:10.597Z,101906.47
2018-09-14T01:06:39.178Z,101903.39
2018-09-14T01:09:13.148Z,101907.75
2018-09-14T01:11:41.861Z,101903.95
2018-09-14T01:14:10.425Z,101899.17
2018-09-14T01:16:39.015Z,101905.42
2018-09-14T01:19:07.573Z,101903.05
2018-09-14T01:21:36.149Z,101902.34
2018-09-14T01:24:04.748Z,101906.38
2018-09-14T01:26:33.421Z,101907.81
2018-09-14T01:29:02.033Z,101907.23
2018-09-14T01:31:30.623Z,101902.92
2018-09-14T01:33:59.739Z,101895.41
2018-09-14T01:36:28.341Z,101895.38
2018-09-14T01:38:56.916Z,101896.53
2018-09-14T01:41:25.497Z,101895.31
2018-09-14T01:43:54.080Z,101897.86
2018-09-14T01:46:22.670Z,101895.48
2018-09-14T01:48:51.297Z,101898.20
2018-09-14T01:51:19.895Z,101885.59
2018-09-14T01:53:48.733Z,101884.67
2018-09-14T01:56:17.342Z,101878.27
2018-09-14T01:58:45.910Z,101880.27
2018-09-14T02:01:14.479Z,101874.96
2018-09-14T02:03:44.027Z,101869.89
2018-09-14T02:06:12.610Z,101874.02
2018-09-14T02:08:41.217Z,101879.05
2018-09-14T02:11:09.792Z,101876.09
2018-09-14T02:13:38.379Z,101865.83
2018-09-14T02:16:06.941Z,101861.92
2018-09-14T02:18:35.538Z,101871.38
2018-09-14T02:21:04.117Z,101874.55
2018-09-14T02:23:32.705Z,101866.97
2018-09-14T02:26:01.613Z,101870.27
2018-09-14T02:28:30.271Z,101867.19
2018-09-14T02:30:58.842Z,101870.78
2018-09-14T02:33:27.436Z,101871.33
2018-09-14T02:35:56.008Z,101868.20
2018-09-14T02:38:24.592Z,101861.66
2018-09-14T02:40:53.156Z,101874.88
2018-09-14T02:43:21.751Z,101869.11
2018-09-14T02:45:50.325Z,101871.08
2018-09-14T02:48:18.986Z,101865.30
2018-09-14T02:50:47.562Z,101863.81
2018-09-14T02:53:16.507Z,101861.48
2018-09-14T02:55:45.083Z,101863.18
2018-09-14T02:58:13.676Z,101864.03
2018-09-14T03:00:42.246Z,101862.84
2018-09-14T03:03:10.835Z,101864.24
2018-09-14T03:05:39.409Z,101866.91
2018-09-14T03:08:08.273Z,101869.41
2018-09-14T03:10:36.862Z,101870.09
2018-09-14T03:13:05.487Z,101868.42
2018-09-14T03:15:34.073Z,101868.31
2018-09-14T03:18:02.656Z,101877.56
2018-09-14T03:20:31.229Z,101873.48
2018-09-14T03:22:59.820Z,101880.25
2018-09-14T03:25:28.392Z,101871.98
2018-09-14T03:27:56.971Z,101868.59
2018-09-14T03:30:25.557Z,101864.02
2018-09-14T03:32:54.173Z,101858.38
2018-09-14T03:35:22.727Z,101860.74
2018-09-14T03:37:51.314Z,101860.87
2018-09-14T03:40:19.914Z,101855.80
2018-09-14T03:42:48.490Z,101864.86
2018-09-14T03:45:17.177Z,101866.06
2018-09-14T03:47:45.742Z,101861.78
2018-09-14T03:50:14.342Z,101860.58
2018-09-14T03:52:42.909Z,101863.92
2018-09-14T03:55:11.549Z,101855.67
2018-09-14T03:57:40.121Z,101869.59
2018-09-14T04:00:08.725Z,101869.03
2018-09-14T04:02:37.293Z,101862.17
2018-09-14T04:05:05.913Z,101857.25
2018-09-14T04:07:34.536Z,101853.63
2018-09-14T04:10:03.149Z,101857.13
2018-09-14T04:12:31.729Z,101855.77
2018-09-14T04:15:00.308Z,101858.27
2018-09-14T04:17:28.875Z,101856.56
2018-09-14T04:19:57.476Z,101853.98
2018-09-14T04:22:26.043Z,101856.00
2018-09-14T04:24:54.643Z,101854.08
2018-09-14T04:27:23.196Z,101857.19
2018-09-14T04:29:51.797Z,101858.98
2018-09-14T04:32:20.357Z,101856.72
2018-09-14T04:34:48.937Z,101870.60
2018-09-14T04:37:17.516Z,101866.82
2018-09-14T04:39:46.107Z,101876.67
2018-09-14T04:42:14.678Z,101873.24
2018-09-14T04:44:43.261Z,101870.70
2018-09-14T04:47:11.820Z,101865.05
2018-09-14T04:49:40.410Z,101867.77
2018-09-14T04:52:09.003Z,101866.06
2018-09-14T04:54:37.595Z,101869.27
2018-09-14T04:57:06.323Z,101868.48
2018-09-14T04:59:34.901Z,101880.02
2018-09-14T05:02:03.487Z,101878.09
2018-09-14T05:04:32.062Z,101879.08
2018-09-14T05:07:00.675Z,101874.23
2018-09-14T05:09:29.257Z,101869.22
2018-09-14T05:11:57.855Z,101882.32
2018-09-14T05:14:26.420Z,101884.28
2018-09-14T05:16:55.062Z,101882.36
2018-09-14T05:19:23.623Z,101883.94
2018-09-14T05:21:52.346Z,101886.04
2018-09-14T05:24:20.950Z,101879.55
2018-09-14T05:26:49.537Z,101886.16
2018-09-14T05:29:18.136Z,101886.77
2018-09-14T05:31:46.744Z,101872.88
2018-09-14T05:34:15.319Z,101892.88
2018-09-14T05:36:43.903Z,101878.68
2018-09-14T05:39:12.481Z,101879.05
2018-09-14T05:41:41.097Z,101882.80
2018-09-14T05:44:09.653Z,101883.33
2018-09-14T05:46:38.243Z,101884.14
2018-09-14T05:49:06.813Z,101893.47
2018-09-14T05:51:35.409Z,101889.61
2018-09-14T05:54:03.986Z,101889.44
2018-09-14T05:56:32.572Z,101888.78
2018-09-14T05:59:01.140Z,101890.52
2018-09-14T06:01:29.779Z,101892.62
2018-09-14T06:03:58.356Z,101900.89
2018-09-14T06:06:27.001Z,101900.92
2018-09-14T06:08:55.552Z,101901.66
2018-09-14T06:11:24.145Z,101898.28
2018-09-14T06:13:52.800Z,101903.47
2018-09-14T06:16:21.387Z,101900.91
2018-09-14T06:18:50.059Z,101903.48
2018-09-14T06:21:18.739Z,101901.30
2018-09-14T06:23:47.296Z,101911.05
2018-09-14T06:26:15.895Z,101904.81
2018-09-14T06:28:44.481Z,101901.96
2018-09-14T06:31:13.069Z,101904.37
2018-09-14T06:33:41.655Z,101907.11
2018-09-14T06:36:10.255Z,101905.45
2018-09-14T06:38:38.826Z,101901.86
2018-09-14T06:41:07.440Z,101900.83
2018-09-14T06:43:36.013Z,101900.12
2018-09-14T06:46:04.620Z,101903.82
2018-09-14T06:48:33.188Z,101893.72
2018-09-14T06:51:01.782Z,101898.56
2018-09-14T06:53:30.350Z,101893.73
2018-09-14T06:55:58.965Z,101897.70
2018-09-14T06:58:27.534Z,101899.47
2018-09-14T07:00:56.147Z,101904.48
2018-09-14T07:03:24.728Z,101898.31
2018-09-14T07:05:53.308Z,101903.38
2018-09-14T07:08:21.902Z,101905.56
2018-09-14T07:10:50.493Z,101906.34
2018-09-14T07:13:19.118Z,101909.41
2018-09-14T07:15:47.672Z,101910.20
2018-09-14T07:18:16.272Z,101908.75
2018-09-14T07:20:44.845Z,101912.58
2018-09-14T07:23:13.425Z,101913.92
2018-09-14T07:25:42.011Z,101908.53
2018-09-14T07:28:10.601Z,101912.28
2018-09-14T07:30:39.212Z,101916.89
2018-09-14T07:33:07.801Z,101914.30
2018-09-14T07:35:36.369Z,101923.55
2018-09-14T07:38:04.965Z,101921.05
2018-09-14T07:40:33.569Z,101926.34
2018-09-14T07:43:02.187Z,101925.91
2018-09-14T07:45:30.760Z,101928.83
2018-09-14T07:47:59.345Z,101936.14
2018-09-14T07:50:27.925Z,101932.39
2018-09-14T07:52:56.494Z,101933.15
2018-09-14T07:55:25.146Z,101935.11
2018-09-14T07:57:53.709Z,101934.27
2018-09-14T08:00:22.266Z,101931.26
2018-09-14T08:02:50.853Z,101936.85
2018-09-14T08:05:19.422Z,101935.63
2018-09-14T08:07:48.039Z,101937.56
2018-09-14T08:10:16.654Z,101935.19
2018-09-14T08:12:45.261Z,101933.88
2018-09-14T08:15:13.843Z,101937.60
2018-09-14T08:17:42.420Z,101936.24
2018-09-14T08:20:11.076Z,101935.52
2018-09-14T08:22:39.631Z,101938.05
2018-09-14T08:25:08.200Z,101941.14
2018-09-14T08:27:36.854Z,101932.36
2018-09-14T08:30:05.644Z,101936.41
2018-09-14T08:32:34.256Z,101924.86
2018-09-14T08:35:02.837Z,101933.97
2018-09-14T08:37:31.445Z,101933.86
2018-09-14T08:40:00.022Z,101938.83
2018-09-14T08:42:28.581Z,101934.59
2018-09-14T08:44:57.190Z,101932.25
2018-09-14T08:47:26.166Z,101935.31
2018-09-14T08:49:54.773Z,101933.70
2018-09-14T08:52:23.352Z,101937.28
2018-09-14T08:54:51.956Z,101933.02
2018-09-14T08:57:20.545Z,101923.33
2018-09-14T08:59:49.142Z,101919.45
2018-09-14T09:02:17.720Z,101927.66
2018-09-14T09:04:46.331Z,101927.40
2018-09-14T09:07:14.973Z,101926.66
2018-09-14T09:09:43.555Z,101933.36
2018-09-14T09:12:12.141Z,101920.59
2018-09-14T09:14:40.753Z,101928.54
2018-09-14T09:17:09.330Z,101922.63
2018-09-14T09:19:37.928Z,101923.07
2018-09-14T09:22:06.613Z,101918.01
2018-09-14T09:24:35.223Z,101915.59
2018-09-14T09:27:03.785Z,101914.41
2018-09-14T09:29:32.465Z,101905.67
2018-09-14T09:32:00.980Z,101906.88
2018-09-14T09:34:29.854Z,101910.52
2018-09-14T09:36:58.421Z,101911.53
2018-09-14T09:39:27.024Z,101905.77
2018-09-14T09:41:55.618Z,101901.64
2018-09-14T09:44:24.214Z,101903.30
2018-09-14T09:46:52.777Z,101906.09
2018-09-14T09:49:21.394Z,101899.24
2018-09-14T09:51:49.960Z,101893.80
2018-09-14T09:54:18.544Z,101895.38
2018-09-14T09:56:47.200Z,101893.53
2018-09-14T09:59:15.773Z,101892.59
2018-09-14T10:01:49.795Z,101892.70
2018-09-14T10:04:23.597Z,101890.51
2018-09-14T10:06:52.166Z,101886.11
2018-09-14T10:09:20.781Z,101889.62
2018-09-14T10:11:49.340Z,101886.61
2018-09-14T10:14:17.943Z,101886.82
2018-09-14T10:16:46.527Z,101882.68
2018-09-14T10:19:15.097Z,101880.75
2018-09-14T10:21:43.691Z,101880.07
2018-09-14T10:24:12.277Z,101884.06
2018-09-14T10:26:40.891Z,101884.32
2018-09-14T10:29:09.488Z,101882.95
2018-09-14T10:31:38.098Z,101883.89
2018-09-14T10:34:07.049Z,101884.44
2018-09-14T10:36:35.657Z,101872.97
2018-09-14T10:39:06.111Z,101875.44
2018-09-14T10:41:34.715Z,101875.83
2018-09-14T10:44:03.282Z,101877.94
2018-09-14T10:46:31.882Z,101872.69
2018-09-14T10:49:00.460Z,101875.92
2018-09-14T10:51:29.083Z,101872.78
2018-09-14T10:53:57.675Z,101876.71
2018-09-14T10:56:26.268Z,101874.72
2018-09-14T10:58:54.889Z,101868.89
2018-09-14T11:01:23.494Z,101875.48
2018-09-14T11:03:52.069Z,101866.12
2018-09-14T11:06:20.667Z,101872.27
2018-09-14T11:08:49.238Z,101864.06
2018-09-14T11:11:17.841Z,101871.72
2018-09-14T11:13:46.417Z,101870.00
2018-09-14T11:16:15.026Z,101862.64
2018-09-14T11:18:43.643Z,101865.30
2018-09-14T11:21:12.238Z,101855.34
2018-09-14T11:23:40.818Z,101849.52
2018-09-14T11:26:09.432Z,101853.06
2018-09-14T11:28:38.064Z,101848.25
2018-09-14T11:31:06.686Z,101843.06
2018-09-14T11:33:35.273Z,101835.69
2018-09-14T11:36:03.887Z,101832.63
2018-09-14T11:38:32.526Z,101826.06
2018-09-14T11:41:01.110Z,101822.08
2018-09-14T11:43:29.684Z,101824.94
2018-09-14T11:45:58.329Z,101823.45
2018-09-14T11:48:26.890Z,101815.95
2018-09-14T11:50:55.487Z,101816.48
2018-09-14T11:53:24.058Z,101819.86
2018-09-14T11:55:52.643Z,101812.31
2018-09-14T11:58:21.402Z,101817.17
2018-09-14T12:00:50.462Z,101806.52
2018-09-14T12:03:19.024Z,101808.52
2018-09-14T12:05:47.627Z,101808.42
2018-09-14T12:08:16.213Z,101795.43
2018-09-14T12:10:44.795Z,101793.99
2018-09-14T12:13:13.625Z,101790.94
2018-09-14T12:15:42.233Z,101784.09
2018-09-14T12:18:10.804Z,101789.66
2018-09-14T12:20:39.405Z,101779.89
2018-09-14T12:23:07.994Z,101786.45
2018-09-14T12:25:38.196Z,101779.28
2018-09-14T12:28:08.271Z,101780.32
2018-09-14T12:30:36.835Z,101781.52
2018-09-14T12:33:05.420Z,101772.36
2018-09-14T12:35:34.012Z,101777.73
2018-09-14T12:38:02.610Z,101775.03
2018-09-14T12:40:31.172Z,101771.90
2018-09-14T12:42:59.753Z,101766.19
2018-09-14T12:45:28.354Z,101768.67
2018-09-14T12:47:56.947Z,101764.41
2018-09-14T12:50:26.354Z,101768.60
2018-09-14T12:52:54.927Z,101769.98
2018-09-14T12:55:23.485Z,101759.89
2018-09-14T12:57:52.141Z,101760.56
2018-09-14T13:00:20.709Z,101764.58
2018-09-14T13:02:49.284Z,101760.20
2018-09-14T13:05:17.849Z,101757.72
2018-09-14T13:07:46.430Z,101756.08
2018-09-14T13:10:14.994Z,101756.08
2018-09-14T13:12:43.582Z,101742.41
2018-09-14T13:15:12.218Z,101749.34
2018-09-14T13:17:40.804Z,101747.47
2018-09-14T13:20:09.369Z,101748.45
2018-09-14T13:22:37.972Z,101737.41
2018-09-14T13:25:06.595Z,101737.09
2018-09-14T13:27:35.180Z,101736.20
2018-09-14T13:30:03.806Z,101729.38
2018-09-14T13:32:32.390Z,101720.63
2018-09-14T13:35:00.948Z,101716.78
2018-09-14T13:37:29.534Z,101713.34
2018-09-14T13:39:58.090Z,101715.70
2018-09-14T13:42:26.888Z,101711.66
2018-09-14T13:44:55.359Z,101716.20
2018-09-14T13:47:23.961Z,101704.11
2018-09-14T13:49:52.536Z,101702.73
2018-09-14T13:52:21.121Z,101708.04
2018-09-14T13:54:49.683Z,101707.70
2018-09-14T13:57:18.270Z,101705.45
2018-09-14T13:59:46.870Z,101706.38
2018-09-14T14:02:15.448Z,101705.37
2018-09-14T14:04:44.003Z,101702.66
2018-09-14T14:07:12.599Z,101708.61
2018-09-14T14:09:41.224Z,101702.80
2018-09-14T14:12:09.782Z,101694.69
2018-09-14T14:14:38.336Z,101688.27
2018-09-14T14:17:07.010Z,101690.61
2018-09-14T14:19:35.565Z,101695.55
2018-09-14T14:22:04.190Z,101690.17
2018-09-14T14:24:32.769Z,101687.51
2018-09-14T14:27:01.632Z,101684.97
2018-09-14T14:29:30.229Z,101690.33
2018-09-14T14:31:58.836Z,101685.98
2018-09-14T14:34:27.399Z,101682.20
2018-09-14T14:36:55.969Z,101681.23
2018-09-14T14:39:24.577Z,101676.24
2018-09-14T14:41:53.158Z,101671.66
2018-09-14T14:44:21.785Z,101672.18
2018-09-14T14:46:50.353Z,101671.34
2018-09-14T14:49:19.107Z,101664.73
2018-09-14T14:51:47.618Z,101657.97
2018-09-14T14:54:16.220Z,101657.56
2018-09-14T14:56:44.793Z,101662.13
2018-09-14T14:59:13.390Z,101665.88
2018-09-14T15:01:41.978Z,101664.50
2018-09-14T15:04:10.590Z,101669.46
2018-09-14T15:06:39.178Z,101663.48
2018-09-14T15:09:09.589Z,101664.05
2018-09-14T15:11:38.155Z,101662.61
2018-09-14T15:14:06.834Z,101662.75
2018-09-14T15:16:35.480Z,101660.50
2018-09-14T15:19:04.089Z,101659.12
2018-09-14T15:21:32.689Z,101653.42
2018-09-14T15:24:01.398Z,101650.97
2018-09-14T15:26:29.930Z,101644.13
2018-09-14T15:28:58.524Z,101641.77
2018-09-14T15:31:27.097Z,101645.36
2018-09-14T15:33:55.689Z,101642.35
2018-09-14T15:36:24.266Z,101635.20
2018-09-14T15:38:52.861Z,101636.19
2018-09-14T15:41:21.410Z,101638.19
2018-09-14T15:43:49.978Z,101633.89
2018-09-14T15:46:18.561Z,101633.56
2018-09-14T15:48:47.132Z,101632.39
2018-09-14T15:51:15.734Z,101628.73
2018-09-14T15:53:44.326Z,101628.58
2018-09-14T15:56:12.896Z,101622.13
2018-09-14T15:58:41.476Z,101624.91
2018-09-14T16:01:10.088Z,101623.42
2018-09-14T16:03:38.676Z,101626.26
2018-09-14T16:06:07.259Z,101623.42
2018-09-14T16:08:35.847Z,101625.42
2018-09-14T16:11:04.438Z,101624.48
2018-09-14T16:13:33.082Z,101628.00
2018-09-14T16:16:01.637Z,101625.89
2018-09-14T16:18:30.218Z,101632.45
2018-09-14T16:20:58.781Z,101632.13
2018-09-14T16:23:27.379Z,101636.42
2018-09-14T16:25:55.948Z,101633.91
2018-09-14T16:28:24.510Z,101630.96
2018-09-14T16:30:53.124Z,101636.63
2018-09-14T16:33:21.701Z,101633.95
2018-09-14T16:35:50.373Z,101639.88
2018-09-14T16:38:18.951Z,101637.06
2018-09-14T16:40:47.545Z,101638.59
2018-09-14T16:43:16.126Z,101637.89
2018-09-14T16:45:44.725Z,101634.22
2018-09-14T16:48:13.326Z,101632.51
2018-09-14T16:50:41.935Z,101642.92
2018-09-14T16:53:10.522Z,101637.58
2018-09-14T16:55:39.125Z,101636.70
2018-09-14T16:58:07.748Z,101641.03
2018-09-14T17:00:36.362Z,101642.84
2018-09-14T17:03:04.940Z,101639.12
2018-09-14T17:05:33.530Z,101636.02
2018-09-14T17:08:02.118Z,101641.70
2018-09-14T17:10:30.710Z,101632.27
2018-09-14T17:12:59.290Z,101633.63
2018-09-14T17:15:27.886Z,101636.84
2018-09-14T17:17:56.467Z,101640.95
2018-09-14T17:20:25.086Z,101638.45
2018-09-14T17:22:53.656Z,101638.41
2018-09-14T17:25:22.265Z,101639.08
2018-09-14T17:27:50.844Z,101641.53
2018-09-14T17:30:19.457Z,101634.23
2018-09-14T17:32:48.009Z,101642.98
2018-09-14T17:35:16.619Z,101638.94
2018-09-14T17:37:45.190Z,101638.59
2018-09-14T17:40:13.774Z,101637.83
2018-09-14T17:42:42.342Z,101642.23
2018-09-14T17:45:10.942Z,101642.93
2018-09-14T17:47:39.512Z,101640.65
2018-09-14T17:50:08.168Z,101646.59
2018-09-14T17:52:36.712Z,101639.97
2018-09-14T17:55:05.301Z,101640.66
2018-09-14T17:57:34.003Z,101647.66
2018-09-14T18:00:02.578Z,101652.37
2018-09-14T18:02:31.128Z,101654.23
2018-09-14T18:04:59.702Z,101658.81
2018-09-14T18:07:28.269Z,101655.44
2018-09-14T18:09:56.853Z,101659.16
2018-09-14T18:12:25.408Z,101659.85
2018-09-14T18:14:53.980Z,101661.53
2018-09-14T18:17:22.536Z,101670.29
2018-09-14T18:19:51.139Z,101663.33
2018-09-14T18:22:19.702Z,101662.52
2018-09-14T18:24:48.274Z,101668.58
2018-09-14T18:27:16.853Z,101664.78
2018-09-14T18:29:45.468Z,101663.89
2018-09-14T18:32:14.025Z,101661.22
2018-09-14T18:34:42.612Z,101667.30
2018-09-14T18:37:11.174Z,101664.56
2018-09-14T18:39:39.737Z,101662.81
2018-09-14T18:42:08.333Z,101665.56
2018-09-14T18:44:36.901Z,101661.91
2018-09-14T18:47:05.636Z,101662.97
2018-09-14T18:49:34.236Z,101663.81
2018-09-14T18:52:02.840Z,101663.59
2018-09-14T18:54:31.409Z,101669.08
2018-09-14T18:56:59.998Z,101672.80
2018-09-14T18:59:28.557Z,101676.52
2018-09-14T19:01:57.158Z,101670.97
2018-09-14T19:04:25.722Z,101669.12
2018-09-14T19:06:54.317Z,101672.19
2018-09-14T19:09:22.898Z,101668.28
2018-09-14T19:11:51.495Z,101671.95
2018-09-14T19:14:20.086Z,101668.23
2018-09-14T19:16:48.687Z,101667.64
2018-09-14T19:19:17.281Z,101668.55
2018-09-14T19:21:45.897Z,101671.19
2018-09-14T19:24:14.463Z,101673.27
2018-09-14T19:26:43.057Z,101668.11
2018-09-14T19:29:11.628Z,101664.06
2018-09-14T19:31:40.245Z,101665.32
2018-09-14T19:34:08.837Z,101662.20
2018-09-14T19:36:37.449Z,101664.05
2018-09-14T19:39:09.032Z,101669.04
2018-09-14T19:41:37.609Z,101666.94
2018-09-14T19:44:06.156Z,101666.88
2018-09-14T19:46:34.730Z,101665.81
2018-09-14T19:49:03.285Z,101667.08
2018-09-14T19:51:31.863Z,101664.20
2018-09-14T19:54:00.422Z,101657.56
2018-09-14T19:56:29.028Z,101667.14
2018-09-14T19:58:57.594Z,101665.38
2018-09-14T20:01:26.165Z,101668.22
2018-09-14T20:03:54.718Z,101663.65
2018-09-14T20:06:23.597Z,101670.67
2018-09-14T20:08:52.488Z,101666.63
2018-09-14T20:11:21.148Z,101660.08
2018-09-14T20:13:49.716Z,101661.77
2018-09-14T20:16:18.295Z,101664.74
2018-09-14T20:18:46.886Z,101662.44
2018-09-14T20:21:15.472Z,101662.64
2018-09-14T20:23:44.029Z,101664.19
2018-09-14T20:26:12.601Z,101658.91
2018-09-14T20:28:41.195Z,101659.61
2018-09-14T20:31:09.796Z,101655.19
2018-09-14T20:33:38.378Z,101652.77
2018-09-14T20:36:07.371Z,101647.63
2018-09-14T20:38:35.951Z,101645.77
2018-09-14T20:41:04.537Z,101646.14
2018-09-14T20:43:33.144Z,101649.48
2018-09-14T20:46:01.747Z,101649.41
2018-09-14T20:48:30.322Z,101651.63
2018-09-14T20:50:58.959Z,101644.58
2018-09-14T20:53:27.538Z,101647.15
2018-09-14T20:55:56.165Z,101640.69
2018-09-14T20:58:24.758Z,101641.75
2018-09-14T21:00:53.366Z,101646.75
2018-09-14T21:03:21.965Z,101641.48
2018-09-14T21:05:50.553Z,101636.02
2018-09-14T21:08:19.381Z,101639.97
2018-09-14T21:10:47.973Z,101642.38
2018-09-14T21:13:16.588Z,101642.23
2018-09-14T21:15:45.486Z,101638.03
2018-09-14T21:18:14.152Z,101634.19
2018-09-14T21:20:42.726Z,101637.77
2018-09-14T21:23:11.329Z,101635.55
2018-09-14T21:25:39.901Z,101632.45
2018-09-14T21:28:08.508Z,101632.09
2018-09-14T21:30:37.109Z,101634.35
2018-09-14T21:33:05.924Z,101627.81
2018-09-14T21:35:34.517Z,101623.81
2018-09-14T21:38:03.107Z,101626.13
2018-09-14T21:40:31.676Z,101624.64
2018-09-14T21:43:00.304Z,101627.91
2018-09-14T21:45:28.877Z,101627.11
2018-09-14T21:47:57.465Z,101626.47
2018-09-14T21:50:26.061Z,101629.00
2018-09-14T21:52:54.650Z,101626.47
2018-09-14T21:55:23.274Z,101618.59
2018-09-14T21:57:51.901Z,101619.44
2018-09-14T22:00:25.869Z,101621.97
2018-09-14T22:02:54.440Z,101627.91
2018-09-14T22:05:23.040Z,101622.61
2018-09-14T22:07:51.614Z,101627.22
2018-09-14T22:10:20.182Z,101623.80
2018-09-14T22:12:48.758Z,101623.65
2018-09-14T22:15:17.320Z,101626.35
2018-09-14T22:17:45.906Z,101629.53
2018-09-14T22:20:14.474Z,101633.32
2018-09-14T22:22:43.068Z,101625.36
2018-09-14T22:25:11.653Z,101627.38
2018-09-14T22:27:40.280Z,101628.38
2018-09-14T22:30:08.919Z,101636.69
2018-09-14T22:32:37.507Z,101636.60
2018-09-14T22:35:06.098Z,101626.52
2018-09-14T22:37:34.782Z,101626.20
2018-09-14T22:40:03.383Z,101619.25
2018-09-14T22:42:31.959Z,101623.59
2018-09-14T22:45:00.549Z,101622.06
2018-09-14T22:47:29.132Z,101628.90
2018-09-14T22:49:57.719Z,101630.95
2018-09-14T22:52:26.297Z,101626.73
2018-09-14T22:54:54.882Z,101631.51
2018-09-14T22:57:23.437Z,101627.97
2018-09-14T22:59:52.032Z,101624.76
2018-09-14T23:02:20.589Z,101622.19
2018-09-14T23:04:49.160Z,101626.77
2018-09-14T23:07:17.713Z,101624.72
2018-09-14T23:09:46.292Z,101616.81
2018-09-14T23:12:14.861Z,101621.88
2018-09-14T23:14:43.458Z,101616.41
2018-09-14T23:17:12.030Z,101611.82
2018-09-14T23:19:40.615Z,101611.78
2018-09-14T23:22:09.176Z,101617.68
2018-09-14T23:24:37.756Z,101610.12
2018-09-14T23:27:06.349Z,101618.27
2018-09-14T23:29:34.998Z,101606.86
2018-09-14T23:32:03.580Z,101603.13
2018-09-14T23:34:32.180Z,101604.98
2018-09-14T23:37:00.750Z,101606.30
2018-09-14T23:39:29.354Z,101603.48
2018-09-14T23:41:57.929Z,101600.17
2018-09-14T23:44:26.520Z,101601.69
2018-09-14T23:46:55.100Z,101605.80
2018-09-14T23:49:23.698Z,101609.61
2018-09-14T23:51:52.381Z,101608.66
2018-09-14T23:54:20.969Z,101611.09
2018-09-14T23:56:49.548Z,101607.55
2018-09-14T23:59:18.149Z,101601.54
